createdAt,value
2023-04-16T00:02:21.837Z,8.11
2023-04-16T00:07:23.441Z,8.08
2023-04-16T00:12:25.339Z,8.04
2023-04-16T00:17:26.866Z,8.01
2023-04-16T00:22:28.367Z,7.98
2023-04-16T00:27:29.932Z,7.95
2023-04-16T00:32:31.409Z,7.93
2023-04-16T00:37:32.943Z,7.86
2023-04-16T00:42:37.094Z,7.82
2023-04-16T00:47:39.104Z,7.70
2023-04-16T00:52:40.964Z,7.56
2023-04-16T00:57:42.570Z,7.44
2023-04-16T01:02:44.442Z,7.40
2023-04-16T01:07:46.122Z,7.47
2023-04-16T01:12:47.623Z,7.54
2023-04-16T01:17:49.600Z,7.58
2023-04-16T01:22:51.480Z,7.63
2023-04-16T01:27:54.934Z,7.68
2023-04-16T01:32:57.927Z,7.70
2023-04-16T01:38:00.185Z,7.65
2023-04-16T01:43:02.186Z,7.62
2023-04-16T01:48:05.069Z,7.68
2023-04-16T01:53:06.633Z,7.74
2023-04-16T01:58:11.083Z,7.75
2023-04-16T02:03:13.450Z,7.76
2023-04-16T02:08:15.080Z,7.78
2023-04-16T02:13:17.044Z,7.75
2023-04-16T02:18:19.222Z,7.76
2023-04-16T02:23:21.181Z,7.77
2023-04-16T02:28:22.727Z,7.77
2023-04-16T02:33:26.443Z,7.78
2023-04-16T02:38:27.960Z,7.79
2023-04-16T02:43:29.980Z,7.78
2023-04-16T02:48:32.320Z,7.80
2023-04-16T02:53:34.023Z,7.81
2023-04-16T02:58:35.713Z,7.78
2023-04-16T03:03:37.201Z,7.78
2023-04-16T03:08:38.688Z,7.72
2023-04-16T03:13:40.197Z,7.72
2023-04-16T03:18:42.151Z,7.78
2023-04-16T03:23:43.639Z,7.77
2023-04-16T03:28:45.332Z,7.76
2023-04-16T03:33:46.867Z,7.76
2023-04-16T03:38:49.383Z,7.82
2023-04-16T03:43:50.915Z,7.81
2023-04-16T03:48:52.412Z,7.82
2023-04-16T03:53:53.914Z,7.82
2023-04-16T03:58:56.166Z,7.86
2023-04-16T04:03:58.637Z,7.87
2023-04-16T04:09:00.555Z,7.88
2023-04-16T04:14:02.317Z,7.89
2023-04-16T04:19:03.873Z,7.92
2023-04-16T04:24:05.532Z,7.91
2023-04-16T04:29:07.123Z,7.98
2023-04-16T04:34:09.314Z,8.03
2023-04-16T04:39:11.034Z,8.08
2023-04-16T04:44:13.282Z,8.13
2023-04-16T04:49:14.771Z,8.17
2023-04-16T04:54:16.797Z,8.17
2023-04-16T04:59:18.374Z,8.19
2023-04-16T05:04:19.895Z,8.30
2023-04-16T05:09:21.855Z,8.46
2023-04-16T05:14:23.575Z,8.58
2023-04-16T05:19:25.462Z,8.63
2023-04-16T05:24:26.946Z,8.78
2023-04-16T05:29:28.633Z,8.93
2023-04-16T05:34:30.790Z,9.08
2023-04-16T05:39:32.753Z,9.17
2023-04-16T05:44:34.721Z,9.32
2023-04-16T05:49:39.659Z,9.50
2023-04-16T05:54:41.173Z,9.64
2023-04-16T05:59:42.839Z,9.83
2023-04-16T06:04:44.351Z,9.99
2023-04-16T06:09:45.883Z,10.20
2023-04-16T06:14:47.397Z,10.40
2023-04-16T06:19:49.111Z,10.58
2023-04-16T06:24:50.673Z,10.68
2023-04-16T06:29:52.311Z,10.73
2023-04-16T06:34:53.892Z,10.83
2023-04-16T06:39:55.418Z,10.92
2023-04-16T06:44:57.054Z,10.83
2023-04-16T06:49:58.818Z,10.78
2023-04-16T06:55:00.459Z,10.74
2023-04-16T07:00:03.220Z,10.89
2023-04-16T07:05:05.766Z,11.00
2023-04-16T07:10:08.344Z,10.97
2023-04-16T07:15:10.580Z,10.84
2023-04-16T07:20:12.204Z,10.77
2023-04-16T07:25:13.891Z,10.74
2023-04-16T07:30:15.752Z,10.85
2023-04-16T07:35:17.441Z,11.13
2023-04-16T07:40:19.391Z,11.29
2023-04-16T07:45:21.422Z,11.37
2023-04-16T07:50:23.417Z,11.43
2023-04-16T07:55:25.069Z,11.46
2023-04-16T08:00:26.713Z,11.43
2023-04-16T08:05:28.474Z,11.45
2023-04-16T08:10:30.262Z,11.38
2023-04-16T08:15:31.967Z,11.36
2023-04-16T08:20:33.754Z,11.60
2023-04-16T08:25:35.686Z,11.79
2023-04-16T08:30:37.267Z,11.84
2023-04-16T08:35:38.820Z,12.08
2023-04-16T08:40:42.541Z,12.31
2023-04-16T08:45:44.589Z,12.68
2023-04-16T08:50:48.240Z,12.94
2023-04-16T08:55:51.436Z,13.26
2023-04-16T09:00:54.139Z,13.98
2023-04-16T09:05:59.212Z,14.23
2023-04-16T09:11:00.859Z,14.40
2023-04-16T09:16:03.790Z,14.46
2023-04-16T09:21:07.827Z,14.56
2023-04-16T09:26:09.315Z,14.81
2023-04-16T09:31:17.128Z,15.06
2023-04-16T09:36:23.610Z,15.15
2023-04-16T09:41:28.457Z,15.11
2023-04-16T09:46:40.908Z,15.52
2023-04-16T09:51:43.847Z,15.48
2023-04-16T09:56:47.022Z,15.41
2023-04-16T10:02:14.971Z,15.83
2023-04-16T10:07:17.096Z,16.31
2023-04-16T10:12:19.322Z,16.68
2023-04-16T10:17:21.904Z,16.76
2023-04-16T10:22:48.008Z,16.47
2023-04-16T10:27:50.651Z,16.86
2023-04-16T10:32:53.487Z,17.60
2023-04-16T10:37:58.217Z,18.47
2023-04-16T10:43:01.679Z,19.82
2023-04-16T10:48:10.095Z,19.99
2023-04-16T10:53:23.771Z,19.82
2023-04-16T10:58:31.013Z,20.78
2023-04-16T11:03:33.011Z,23.59
2023-04-16T11:08:38.839Z,27.79
2023-04-16T11:13:46.367Z,30.28
2023-04-16T11:18:51.768Z,33.24
2023-04-16T11:23:53.834Z,33.58
2023-04-16T11:28:57.299Z,31.43
2023-04-16T11:34:00.522Z,30.42
2023-04-16T11:39:04.237Z,27.98
2023-04-16T11:44:24.220Z,24.99
2023-04-16T11:49:32.465Z,22.84
2023-04-16T11:54:36.542Z,21.67
2023-04-16T11:59:38.317Z,22.35
2023-04-16T12:04:59.969Z,21.75
2023-04-16T12:10:08.754Z,21.03
2023-04-16T12:15:11.197Z,21.06
2023-04-16T12:20:15.466Z,21.10
2023-04-16T12:25:18.465Z,19.90
2023-04-16T12:30:22.916Z,19.24
2023-04-16T12:35:32.843Z,18.82
2023-04-16T12:40:34.677Z,19.29
2023-04-16T12:45:38.538Z,20.46
2023-04-16T12:50:40.329Z,22.89
2023-04-16T12:55:42.032Z,23.21
2023-04-16T13:00:44.137Z,23.62
2023-04-16T13:05:45.713Z,23.83
2023-04-16T13:10:47.493Z,22.45
2023-04-16T13:15:49.145Z,21.88
2023-04-16T13:20:51.185Z,24.19
2023-04-16T13:25:53.297Z,25.04
2023-04-16T13:30:54.992Z,24.26
2023-04-16T13:35:56.813Z,23.54
2023-04-16T13:40:58.569Z,22.23
2023-04-16T13:46:01.150Z,23.22
2023-04-16T13:51:02.966Z,22.63
2023-04-16T13:56:05.147Z,21.02
2023-04-16T14:01:07.381Z,19.83
2023-04-16T14:06:09.037Z,19.28
2023-04-16T14:11:12.121Z,20.74
2023-04-16T14:16:14.085Z,22.80
2023-04-16T14:21:17.010Z,25.72
2023-04-16T14:26:20.664Z,28.20
2023-04-16T14:31:22.465Z,29.49
2023-04-16T14:36:24.018Z,30.13
2023-04-16T14:41:27.234Z,29.22
2023-04-16T14:46:30.747Z,28.04
2023-04-16T14:51:32.800Z,25.69
2023-04-16T14:56:34.769Z,24.07
2023-04-16T15:01:39.721Z,22.79
2023-04-16T15:06:42.618Z,21.92
2023-04-16T15:11:44.231Z,21.34
2023-04-16T15:16:49.750Z,21.33
2023-04-16T15:21:53.085Z,21.47
2023-04-16T15:26:54.561Z,20.94
2023-04-16T15:31:56.293Z,20.30
2023-04-16T15:36:57.880Z,19.59
2023-04-16T15:42:02.213Z,19.10
2023-04-16T15:47:06.511Z,18.66
2023-04-16T15:52:08.173Z,18.16
2023-04-16T15:57:09.738Z,17.95
2023-04-16T16:02:11.316Z,17.79
2023-04-16T16:07:15.593Z,17.69
2023-04-16T16:12:17.357Z,17.73
2023-04-16T16:17:20.459Z,17.96
2023-04-16T16:22:24.014Z,17.51
2023-04-16T16:27:25.838Z,16.87
2023-04-16T16:32:27.524Z,16.29
2023-04-16T16:37:29.766Z,15.75
2023-04-16T16:42:32.356Z,15.28
2023-04-16T16:47:34.024Z,14.86
2023-04-16T16:52:36.183Z,14.50
2023-04-16T16:57:40.828Z,14.17
2023-04-16T17:02:42.453Z,13.85
2023-04-16T17:07:44.680Z,13.67
2023-04-16T17:12:51.199Z,13.52
2023-04-16T17:17:52.863Z,13.43
2023-04-16T17:22:54.527Z,13.40
2023-04-16T17:27:56.287Z,13.32
2023-04-16T17:32:58.222Z,13.22
2023-04-16T17:38:00.358Z,13.12
2023-04-16T17:43:02.230Z,12.98
2023-04-16T17:48:04.735Z,12.81
2023-04-16T17:53:06.478Z,12.66
2023-04-16T17:58:08.271Z,12.54
2023-04-16T18:03:11.793Z,12.43
2023-04-16T18:08:13.417Z,12.30
2023-04-16T18:13:14.926Z,12.24
2023-04-16T18:18:16.744Z,12.20
2023-04-16T18:23:18.297Z,12.13
2023-04-16T18:28:19.847Z,12.05
2023-04-16T18:33:44.432Z,11.93
2023-04-16T18:38:57.008Z,11.77
2023-04-16T18:44:02.376Z,11.68
2023-04-16T18:49:03.891Z,11.49
2023-04-16T18:54:05.609Z,11.33
2023-04-16T18:59:07.130Z,11.18
2023-04-16T19:04:08.673Z,11.03
2023-04-16T19:09:11.562Z,10.91
2023-04-16T19:14:13.509Z,10.83
2023-04-16T19:19:15.021Z,10.76
2023-04-16T19:24:16.627Z,10.70
2023-04-16T19:29:18.199Z,10.60
2023-04-16T19:34:19.694Z,10.54
2023-04-16T19:39:21.550Z,10.44
2023-04-16T19:44:23.342Z,10.34
2023-04-16T19:49:28.069Z,10.30
2023-04-16T19:54:29.718Z,10.26
2023-04-16T19:59:32.305Z,10.24
2023-04-16T20:04:34.760Z,10.18
2023-04-16T20:09:36.357Z,10.14
2023-04-16T20:14:37.906Z,10.10
2023-04-16T20:19:39.408Z,10.11
2023-04-16T20:24:42.081Z,10.19
2023-04-16T20:29:43.759Z,10.23
2023-04-16T20:34:45.331Z,10.23
2023-04-16T20:39:50.011Z,10.25
2023-04-16T20:44:56.622Z,10.26
2023-04-16T20:50:01.854Z,10.22
2023-04-16T20:55:03.869Z,10.15
2023-04-16T21:00:09.917Z,10.11
2023-04-16T21:05:14.142Z,10.10
2023-04-16T21:10:20.406Z,10.09
2023-04-16T21:15:22.460Z,10.06
2023-04-16T21:20:23.956Z,10.03
2023-04-16T21:25:25.873Z,9.95
2023-04-16T21:30:27.662Z,9.90
2023-04-16T21:35:31.940Z,9.84
2023-04-16T21:40:33.635Z,9.75
2023-04-16T21:45:35.533Z,9.63
2023-04-16T21:50:37.157Z,9.54
2023-04-16T21:55:40.732Z,9.44
2023-04-16T22:00:42.641Z,9.32
2023-04-16T22:05:45.951Z,9.20
2023-04-16T22:10:47.461Z,9.07
2023-04-16T22:15:49.080Z,8.97
2023-04-16T22:20:54.770Z,8.87
2023-04-16T22:25:57.106Z,8.70
2023-04-16T22:30:58.616Z,8.51
2023-04-16T22:36:00.574Z,8.31
2023-04-16T22:41:02.425Z,8.13
2023-04-16T22:46:06.700Z,7.97
2023-04-16T22:51:09.617Z,7.87
2023-04-16T22:56:12.320Z,7.80
2023-04-16T23:01:13.895Z,7.75
2023-04-16T23:06:15.812Z,7.77
2023-04-16T23:11:17.320Z,7.81
2023-04-16T23:16:19.289Z,7.83
2023-04-16T23:21:20.825Z,7.85
2023-04-16T23:26:22.371Z,7.83
2023-04-16T23:31:24.010Z,7.80
2023-04-16T23:36:27.353Z,7.78
2023-04-16T23:41:28.878Z,7.74
2023-04-16T23:46:30.607Z,7.71
2023-04-16T23:51:32.238Z,7.73
2023-04-16T23:56:34.054Z,7.79
